Time;durP1;ratioP1;P1;durP2;ratioP2;P2;SDS_P1;SDS_P2;PMS_P1;PMS_P2;Temp;Humidity;BMP_temperature;BMP_pressure;BME280_temperature;BME280_humidity;BME280_pressure;Samples;Min_cycle;Max_cycle;Signal;HPM_P1;HPM_P2
2022/12/29 00:00:05;;;;;;;2.20;1.30;;;;;;;9.42;83.98;99587.06;4955933;28;20204;-70
2022/12/29 00:02:31;;;;;;;1.57;1.00;;;;;;;9.43;83.67;99586.13;4960228;28;20944;-69
2022/12/29 00:04:58;;;;;;;1.37;1.17;;;;;;;9.44;83.78;99588.66;4957566;28;20243;-69
2022/12/29 00:07:24;;;;;;;0.60;0.60;;;;;;;9.49;83.84;99589.16;4962676;28;20211;-68
2022/12/29 00:09:51;;;;;;;1.53;1.10;;;;;;;9.50;84.17;99582.00;4960728;28;20212;-68
2022/12/29 00:12:17;;;;;;;2.77;1.00;;;;;;;9.50;83.35;99587.31;4965265;28;20208;-70
2022/12/29 00:17:29;;;;;;;1.50;1.00;;;;;;;9.57;83.03;99577.94;4962949;28;20574;-69
2022/12/29 00:36:31;;;;;;;1.23;1.00;;;;;;;9.64;83.15;99572.06;4957818;28;20278;-69
2022/12/29 00:44:29;;;;;;;0.87;0.77;;;;;;;9.72;83.15;99559.00;4961228;28;20235;-69
2022/12/29 00:46:57;;;;;;;2.50;0.93;;;;;;;9.73;83.19;99566.00;4961159;28;20211;-69
2022/12/29 00:49:32;;;;;;;2.27;1.10;;;;;;;9.74;83.37;99559.72;4962226;28;20235;-69
2022/12/29 00:52:01;;;;;;;1.30;0.80;;;;;;;9.76;83.40;99575.56;4960175;28;20678;-69
2022/12/29 00:54:28;;;;;;;2.30;0.90;;;;;;;9.82;83.67;99576.91;4962816;28;20231;-69
2022/12/29 00:56:55;;;;;;;1.33;1.13;;;;;;;9.80;83.82;99565.53;4961758;28;20204;-69
2022/12/29 00:59:23;;;;;;;1.30;0.90;;;;;;;9.81;84.30;99567.25;4960396;28;20208;-69
2022/12/29 01:01:50;;;;;;;1.20;0.90;;;;;;;9.85;83.98;99563.38;4958889;28;20212;-69
2022/12/29 01:04:19;;;;;;;1.63;0.90;;;;;;;9.83;84.39;99565.31;4956747;28;20715;-69
2022/12/29 01:06:46;;;;;;;0.80;0.73;;;;;;;9.88;84.42;99547.16;4962326;28;20267;-69
2022/12/29 01:11:56;;;;;;;1.00;0.63;;;;;;;9.99;83.86;99549.84;4962937;28;20215;-69
2022/12/29 01:14:24;;;;;;;1.43;0.80;;;;;;;9.95;83.88;99545.72;4966641;28;20221;-70
2022/12/29 01:16:51;;;;;;;1.40;0.80;;;;;;;9.94;83.96;99542.22;4960967;28;20213;-69
2022/12/29 01:19:20;;;;;;;1.00;0.70;;;;;;;9.97;83.94;99535.81;4970363;28;20211;-69
2022/12/29 01:21:47;;;;;;;1.17;0.83;;;;;;;9.98;84.40;99546.34;4966705;28;20231;-69
2022/12/29 01:24:14;;;;;;;1.20;0.90;;;;;;;9.95;84.52;99541.25;4964915;28;20718;-70
2022/12/29 01:26:40;;;;;;;1.90;1.03;;;;;;;9.95;84.38;99535.94;4962078;28;20209;-69
2022/12/29 01:29:07;;;;;;;1.87;0.90;;;;;;;9.99;84.99;99525.91;4962319;28;20204;-69
2022/12/29 01:31:33;;;;;;;1.27;0.73;;;;;;;9.98;84.94;99537.53;4970105;28;20686;-69
2022/12/29 01:34:00;;;;;;;0.90;0.80;;;;;;;9.92;85.08;99512.25;4968334;28;20232;-69
2022/12/29 01:36:28;;;;;;;0.80;0.80;;;;;;;9.91;85.34;99517.69;4968799;28;20786;-69
2022/12/29 01:38:54;;;;;;;1.23;1.00;;;;;;;9.87;85.45;99513.56;4968303;28;20204;-69
2022/12/29 01:41:21;;;;;;;1.20;0.97;;;;;;;9.90;85.98;99505.34;4970449;28;20719;-69
2022/12/29 01:43:50;;;;;;;2.27;1.10;;;;;;;9.89;86.03;99493.00;4964000;28;20239;-69
2022/12/29 01:46:27;;;;;;;1.20;0.97;;;;;;;9.91;85.79;99493.75;4960919;28;20211;-68
2022/12/29 01:48:58;;;;;;;2.93;0.83;;;;;;;9.89;86.33;99488.53;4962998;28;20704;-69
2022/12/29 01:51:30;;;;;;;1.57;0.80;;;;;;;9.89;86.06;99499.19;4963427;28;20693;-68
2022/12/29 01:54:01;;;;;;;1.37;0.70;;;;;;;9.93;86.66;99499.78;4964786;28;20225;-69
2022/12/29 01:56:28;;;;;;;0.83;0.80;;;;;;;9.93;86.79;99489.16;4969102;28;20204;-69
2022/12/29 01:59:01;;;;;;;4.73;1.20;;;;;;;9.86;86.92;99479.94;4965137;28;20215;-69
2022/12/29 02:01:27;;;;;;;1.53;0.80;;;;;;;9.83;87.44;99475.75;4964097;28;20289;-69
2022/12/29 02:03:54;;;;;;;1.00;0.90;;;;;;;9.85;87.22;99475.63;4968525;28;20240;-69
2022/12/29 02:06:25;;;;;;;0.77;0.57;;;;;;;9.84;87.67;99477.44;4969766;28;20208;-69
2022/12/29 02:08:55;;;;;;;1.10;0.80;;;;;;;9.86;87.81;99479.94;4965514;28;20213;-69
2022/12/29 02:11:24;;;;;;;0.90;0.73;;;;;;;9.89;87.71;99466.41;4968398;28;20617;-69
2022/12/29 02:13:50;;;;;;;0.80;0.70;;;;;;;9.93;87.67;99459.91;4965895;28;20235;-69
2022/12/29 02:16:32;;;;;;;0.87;0.60;;;;;;;9.98;87.56;99457.72;4960884;28;20207;-69
2022/12/29 02:19:21;;;;;;;1.03;0.60;;;;;;;9.99;87.61;99460.25;4967436;28;20208;-68
2022/12/29 02:22:12;;;;;;;0.70;0.70;;;;;;;10.03;87.37;99452.91;4964886;28;20208;-69
2022/12/29 02:25:10;;;;;;;0.90;0.67;;;;;;;10.02;87.25;99468.00;4965578;28;20232;-69
2022/12/29 02:28:27;;;;;;;1.23;0.80;;;;;;;10.08;86.55;99453.34;4960858;28;20205;-69
2022/12/29 02:31:06;;;;;;;0.80;0.50;;;;;;;10.13;86.50;99458.31;4918864;28;20221;-69
2022/12/29 02:33:49;;;;;;;2.00;0.60;;;;;;;10.11;86.34;99453.09;4961929;28;20201;-69
2022/12/29 02:36:22;;;;;;;1.03;0.67;;;;;;;10.09;86.47;99447.06;4956237;28;20250;-69
2022/12/29 02:38:57;;;;;;;0.53;0.53;;;;;;;10.16;86.69;99445.63;4966325;28;20207;-69
2022/12/29 02:41:30;;;;;;;0.60;0.60;;;;;;;10.15;86.36;99465.19;4963443;28;20206;-69
2022/12/29 02:44:05;;;;;;;0.70;0.70;;;;;;;10.18;86.33;99464.97;4962743;28;20327;-69
2022/12/29 02:46:37;;;;;;;0.90;0.60;;;;;;;10.20;86.26;99467.53;4958870;28;20205;-69
2022/12/29 02:49:10;;;;;;;0.80;0.70;;;;;;;10.19;86.06;99466.69;4962767;28;20200;-69
2022/12/29 02:51:44;;;;;;;1.40;0.60;;;;;;;10.20;86.02;99470.19;4969393;28;20569;-69
2022/12/29 02:57:00;;;;;;;1.17;0.60;;;;;;;10.24;85.23;99455.66;4950548;28;20341;-69
2022/12/29 02:59:27;;;;;;;0.60;0.60;;;;;;;10.22;85.16;99455.78;4966970;28;20216;-68
2022/12/29 03:02:20;;;;;;;0.90;0.67;;;;;;;10.25;85.08;99455.53;4962243;28;20216;-69
2022/12/29 03:05:00;;;;;;;2.33;0.70;;;;;;;10.24;85.32;99458.31;4964177;28;20240;-69
2022/12/29 03:07:37;;;;;;;1.00;0.77;;;;;;;10.22;84.96;99445.13;4968556;28;20208;-69
2022/12/29 03:10:15;;;;;;;0.90;0.60;;;;;;;10.26;85.52;99453.72;4963481;28;20208;-69
2022/12/29 03:18:30;;;;;;;0.83;0.80;;;;;;;10.29;85.39;99441.00;4963131;28;20211;-69
2022/12/29 03:21:03;;;;;;;1.40;1.30;;;;;;;10.28;85.55;99447.31;4959320;28;20204;-69
2022/12/29 03:23:31;;;;;;;2.40;0.83;;;;;;;10.28;85.60;99444.63;4960111;28;20221;-70
2022/12/29 03:26:02;;;;;;;1.43;0.70;;;;;;;10.28;85.81;99441.13;4962499;28;20212;-68
2022/12/29 03:28:34;;;;;;;0.70;0.70;;;;;;;10.25;86.24;99444.88;4964122;28;20692;-69
2022/12/29 03:31:01;;;;;;;1.20;0.90;;;;;;;10.27;86.49;99434.97;4959101;28;20228;-69
2022/12/29 03:33:31;;;;;;;1.07;0.60;;;;;;;10.28;86.62;99428.69;4956661;28;20204;-69
2022/12/29 03:36:01;;;;;;;1.40;0.83;;;;;;;10.29;86.60;99426.84;4952506;28;20208;-68
2022/12/29 03:38:36;;;;;;;2.47;1.37;;;;;;;10.32;86.76;99413.31;4956807;28;20208;-70
2022/12/29 03:41:10;;;;;;;2.00;1.33;;;;;;;10.30;86.97;99410.78;4959457;28;20216;-69
2022/12/29 03:43:36;;;;;;;2.00;0.80;;;;;;;10.30;87.41;99402.78;4966192;28;20222;-69
2022/12/29 03:46:03;;;;;;;0.80;0.60;;;;;;;10.28;87.72;99407.38;4953511;28;20667;-69
2022/12/29 03:48:32;;;;;;;0.43;0.43;;;;;;;10.33;87.74;99413.19;4961652;28;20835;-69
2022/12/29 03:50:59;;;;;;;1.23;0.70;;;;;;;10.33;87.31;99404.34;4955100;28;20220;-69
2022/12/29 03:53:26;;;;;;;1.07;0.80;;;;;;;10.29;87.74;99401.09;4960248;28;20726;-70
2022/12/29 03:55:52;;;;;;;1.23;0.80;;;;;;;10.33;88.21;99397.22;4957225;28;20208;-70
2022/12/29 03:58:18;;;;;;;1.37;1.00;;;;;;;10.32;87.96;99406.16;4959132;28;20669;-69
2022/12/29 04:00:45;;;;;;;0.60;0.60;;;;;;;10.32;88.06;99397.34;4957819;28;20217;-69
2022/12/29 04:03:11;;;;;;;0.80;0.57;;;;;;;10.31;88.01;99393.84;4957968;28;20225;-70
2022/12/29 04:05:39;;;;;;;1.47;0.70;;;;;;;10.27;88.42;99392.38;4958170;28;20236;-69
2022/12/29 04:08:06;;;;;;;0.63;0.60;;;;;;;10.29;88.39;99409.06;4961480;28;20209;-69
2022/12/29 04:10:32;;;;;;;0.93;0.70;;;;;;;10.28;88.35;99414.53;4957181;28;20209;-70
2022/12/29 04:12:59;;;;;;;0.77;0.60;;;;;;;10.28;88.24;99410.03;4964320;28;20212;-69
2022/12/29 04:15:26;;;;;;;2.20;0.67;;;;;;;10.28;88.55;99417.19;4966261;28;20242;-69
2022/12/29 04:17:52;;;;;;;1.40;0.77;;;;;;;10.29;88.39;99408.22;4957674;28;20690;-69
2022/12/29 04:23:05;;;;;;;2.23;1.17;;;;;;;10.30;88.08;99399.28;4963018;28;20211;-69
2022/12/29 04:25:32;;;;;;;1.47;0.60;;;;;;;10.37;88.04;99403.97;4962801;28;20236;-69
2022/12/29 04:27:58;;;;;;;0.90;0.60;;;;;;;10.38;87.72;99402.16;4960333;28;20209;-69
2022/12/29 04:30:25;;;;;;;0.93;0.70;;;;;;;10.39;87.65;99404.69;4966908;28;20202;-69
2022/12/29 04:32:52;;;;;;;1.20;0.60;;;;;;;10.39;87.40;99412.66;4962310;28;20667;-69
2022/12/29 04:35:18;;;;;;;2.50;0.60;;;;;;;10.44;87.13;99407.81;4975138;23;20236;-75
2022/12/29 04:37:45;;;;;;;0.60;0.50;;;;;;;10.44;86.65;99402.50;4969657;28;20226;-75
2022/12/29 04:40:13;;;;;;;2.77;0.70;;;;;;;10.44;86.44;99406.97;4975862;28;20208;-75
2022/12/29 04:42:39;;;;;;;1.53;0.80;;;;;;;10.47;86.28;99408.53;4971703;28;20208;-76
2022/12/29 04:45:07;;;;;;;1.27;0.40;;;;;;;10.54;85.70;99409.72;4969785;28;20239;-75
2022/12/29 04:47:34;;;;;;;0.47;0.40;;;;;;;10.53;85.44;99411.53;4971441;28;21287;-75
2022/12/29 04:50:00;;;;;;;1.03;0.40;;;;;;;10.55;85.05;99403.44;4975561;28;20212;-75
2022/12/29 04:52:27;;;;;;;2.63;1.47;;;;;;;10.55;85.06;99400.78;4982239;28;20206;-75
2022/12/29 04:54:53;;;;;;;0.50;0.50;;;;;;;10.57;84.65;99385.53;4973641;28;20229;-75
2022/12/29 04:57:21;;;;;;;1.70;0.90;;;;;;;10.61;83.87;99382.44;4970781;28;20214;-75
2022/12/29 04:59:47;;;;;;;2.07;1.13;;;;;;;10.66;83.44;99390.06;4979260;28;20209;-75
2022/12/29 05:02:14;;;;;;;1.03;0.60;;;;;;;10.69;83.20;99389.81;4969786;28;20210;-74
2022/12/29 05:04:40;;;;;;;1.53;0.70;;;;;;;10.77;82.32;99395.31;4970246;28;20236;-75
2022/12/29 05:07:07;;;;;;;1.57;0.67;;;;;;;10.75;82.26;99384.81;4966498;28;20577;-75
2022/12/29 05:09:33;;;;;;;1.93;1.13;;;;;;;10.82;81.65;99379.81;4978985;28;20245;-75
2022/12/29 05:12:00;;;;;;;3.00;1.57;;;;;;;10.80;81.63;99371.09;4970893;28;20232;-75
2022/12/29 05:14:27;;;;;;;2.77;1.00;;;;;;;10.81;81.55;99375.47;4971215;28;20236;-76
2022/12/29 05:16:54;;;;;;;0.87;0.40;;;;;;;10.87;80.78;99371.44;4967104;28;20217;-75
2022/12/29 05:19:20;;;;;;;1.67;0.80;;;;;;;10.88;80.60;99365.97;4970894;28;20210;-75
2022/12/29 05:21:47;;;;;;;0.70;0.60;;;;;;;10.88;80.35;99371.31;4973873;28;20231;-75
2022/12/29 05:24:15;;;;;;;2.37;1.13;;;;;;;10.88;80.26;99368.66;4967497;28;20236;-74
2022/12/29 05:26:41;;;;;;;0.93;0.43;;;;;;;10.90;80.22;99366.69;4969875;28;20231;-75
2022/12/29 05:29:08;;;;;;;1.10;0.60;;;;;;;10.94;80.02;99368.09;4968978;28;20212;-75
2022/12/29 05:31:36;;;;;;;1.33;0.87;;;;;;;10.97;79.58;99364.34;4971233;28;20211;-75
2022/12/29 05:34:02;;;;;;;1.60;0.80;;;;;;;11.01;79.29;99366.63;4965990;28;20268;-76
2022/12/29 05:36:29;;;;;;;0.83;0.60;;;;;;;11.00;79.43;99366.75;4973078;28;20208;-75
2022/12/29 05:38:55;;;;;;;0.70;0.60;;;;;;;10.99;79.48;99362.41;4975037;28;20313;-75
2022/12/29 05:41:22;;;;;;;1.60;0.90;;;;;;;11.01;79.57;99361.28;4976230;28;20203;-75
2022/12/29 05:43:48;;;;;;;0.40;0.30;;;;;;;10.98;79.78;99368.69;4967738;28;20208;-75
2022/12/29 05:46:14;;;;;;;0.40;0.40;;;;;;;10.96;80.08;99368.81;4971480;28;20691;-75
2022/12/29 05:48:42;;;;;;;1.07;0.50;;;;;;;10.95;80.40;99369.78;4965332;28;20209;-76
2022/12/29 05:51:09;;;;;;;0.80;0.50;;;;;;;10.98;80.64;99358.03;4975499;28;20206;-76
2022/12/29 05:53:35;;;;;;;1.97;1.30;;;;;;;10.96;81.03;99355.50;4965767;28;20211;-76
2022/12/29 05:56:01;;;;;;;0.73;0.73;;;;;;;10.96;81.27;99363.50;4969148;28;20242;-75
2022/12/29 05:58:28;;;;;;;0.90;0.60;;;;;;;10.94;81.63;99360.13;4968561;28;20208;-75
2022/12/29 06:00:54;;;;;;;0.90;0.77;;;;;;;11.01;82.00;99360.44;4972346;28;20236;-75
2022/12/29 06:03:21;;;;;;;1.93;0.60;;;;;;;11.02;82.90;99356.81;4976050;28;20210;-75
2022/12/29 06:05:49;;;;;;;0.60;0.50;;;;;;;11.01;83.20;99357.78;4968290;28;20236;-76
2022/12/29 06:08:15;;;;;;;1.10;0.40;;;;;;;10.97;83.41;99356.34;4970208;28;20206;-75
2022/12/29 06:10:41;;;;;;;1.57;0.30;;;;;;;10.95;83.96;99367.13;4974819;28;20204;-74
2022/12/29 06:13:08;;;;;;;0.50;0.33;;;;;;;10.93;84.57;99361.09;4981735;28;20216;-74
2022/12/29 06:15:35;;;;;;;0.83;0.40;;;;;;;10.88;84.84;99357.16;4972499;28;20260;-74
2022/12/29 06:18:01;;;;;;;0.40;0.30;;;;;;;10.88;85.15;99346.50;4969499;28;20204;-75
2022/12/29 06:20:28;;;;;;;0.40;0.30;;;;;;;10.90;85.13;99348.06;4972514;28;20217;-75
2022/12/29 06:22:56;;;;;;;1.13;0.53;;;;;;;10.87;85.43;99335.00;4975332;28;20212;-75
2022/12/29 06:25:22;;;;;;;1.27;0.77;;;;;;;10.86;85.40;99329.78;4966659;28;20234;-75
2022/12/29 06:27:49;;;;;;;1.30;0.63;;;;;;;10.84;85.62;99321.09;4965827;28;20300;-74
2022/12/29 06:30:16;;;;;;;0.80;0.50;;;;;;;10.82;85.76;99325.69;4968699;28;20207;-74
2022/12/29 06:32:43;;;;;;;0.67;0.40;;;;;;;10.79;85.99;99322.31;4973882;28;20291;-75
2022/12/29 06:35:10;;;;;;;0.67;0.30;;;;;;;10.82;86.11;99321.22;4975814;28;20225;-75
2022/12/29 06:37:36;;;;;;;0.83;0.30;;;;;;;10.85;85.80;99333.44;4965198;28;20206;-75
2022/12/29 06:40:05;;;;;;;1.47;0.50;;;;;;;10.91;85.27;99331.09;4966314;28;20219;-75
2022/12/29 06:42:32;;;;;;;2.37;1.20;;;;;;;10.91;85.19;99324.94;4973612;28;20216;-75
2022/12/29 06:45:00;;;;;;;0.70;0.50;;;;;;;10.91;85.11;99309.78;4979670;28;20710;-75
2022/12/29 06:47:26;;;;;;;0.60;0.50;;;;;;;10.93;84.67;99318.47;4969332;28;20296;-78
2022/12/29 06:49:53;;;;;;;0.47;0.47;;;;;;;10.94;84.73;99325.50;4969932;28;20229;-75
2022/12/29 06:52:19;;;;;;;2.00;0.40;;;;;;;11.00;84.19;99314.31;4968130;28;20212;-75
2022/12/29 06:54:46;;;;;;;1.33;0.20;;;;;;;11.02;84.23;99308.84;4977499;28;20228;-76
2022/12/29 06:57:14;;;;;;;0.27;0.27;;;;;;;10.97;84.16;99295.09;4970613;28;20215;-75
2022/12/29 06:59:40;;;;;;;0.20;0.20;;;;;;;11.01;84.16;99305.34;4965087;28;20228;-75
2022/12/29 07:02:07;;;;;;;0.20;0.20;;;;;;;11.03;83.78;99316.72;4969218;28;20208;-75
2022/12/29 07:04:33;;;;;;;0.30;0.10;;;;;;;11.06;83.38;99312.94;4974288;28;20715;-75
2022/12/29 07:07:00;;;;;;;0.40;0.20;;;;;;;11.12;82.46;99323.91;4967281;28;20208;-75
2022/12/29 07:09:26;;;;;;;0.20;0.10;;;;;;;11.13;82.08;99314.09;4967777;28;20220;-75
2022/12/29 07:11:52;;;;;;;0.30;0.13;;;;;;;11.14;82.09;99337.94;4966882;28;20236;-75
2022/12/29 07:14:20;;;;;;;0.40;0.40;;;;;;;11.16;81.60;99342.28;4970314;28;20221;-75
2022/12/29 07:16:47;;;;;;;0.70;0.20;;;;;;;11.16;81.02;99329.81;4963454;28;20212;-75
2022/12/29 07:19:13;;;;;;;0.20;0.20;;;;;;;11.20;80.64;99314.41;4966441;28;20699;-75
2022/12/29 07:21:40;;;;;;;0.50;0.50;;;;;;;11.23;80.33;99295.50;4979434;28;20416;-75
2022/12/29 07:24:07;;;;;;;1.17;0.30;;;;;;;11.25;79.62;99307.72;4971975;28;20231;-75
2022/12/29 07:26:33;;;;;;;0.43;0.30;;;;;;;11.26;79.12;99313.88;4966145;28;20303;-75
2022/12/29 07:29:01;;;;;;;0.30;0.30;;;;;;;11.27;78.75;99310.25;4967440;28;20209;-75
2022/12/29 07:31:29;;;;;;;0.40;0.20;;;;;;;11.29;78.43;99318.91;4960881;28;20727;-75
2022/12/29 07:33:55;;;;;;;0.30;0.20;;;;;;;11.32;77.66;99348.81;4964101;28;20208;-75
2022/12/29 07:36:22;;;;;;;0.10;0.10;;;;;;;11.31;77.59;99364.94;4961384;28;20217;-76
2022/12/29 07:38:48;;;;;;;0.40;0.30;;;;;;;11.32;77.54;99358.63;4965819;28;20718;-75
2022/12/29 07:41:15;;;;;;;0.40;0.23;;;;;;;11.38;77.24;99366.13;4971358;28;20698;-76
2022/12/29 07:43:41;;;;;;;0.30;0.20;;;;;;;11.35;77.98;99393.88;4963579;28;20213;-75
2022/12/29 07:46:08;;;;;;;0.20;0.20;;;;;;;11.34;77.98;99386.00;4977622;28;20228;-75
2022/12/29 07:48:36;;;;;;;0.20;0.10;;;;;;;11.34;78.22;99383.34;4968261;28;20216;-75
2022/12/29 07:51:03;;;;;;;0.73;0.40;;;;;;;11.32;78.58;99401.28;4968732;28;20271;-74
2022/12/29 07:53:29;;;;;;;0.50;0.30;;;;;;;11.34;78.56;99402.00;4970490;28;20232;-74
2022/12/29 07:55:56;;;;;;;0.20;0.20;;;;;;;11.33;78.61;99410.97;4966330;28;20226;-75
2022/12/29 07:58:23;;;;;;;0.40;0.20;;;;;;;11.31;78.53;99420.91;4965430;28;20213;-75
2022/12/29 08:00:54;;;;;;;0.50;0.20;;;;;;;11.30;78.25;99405.91;4961604;28;20207;-74
2022/12/29 08:03:20;;;;;;;0.50;0.30;;;;;;;11.29;78.23;99388.22;4966083;28;20198;-74
2022/12/29 08:05:48;;;;;;;0.17;0.17;;;;;;;11.27;78.69;99416.84;4966643;28;20235;-74
2022/12/29 08:08:14;;;;;;;0.70;0.20;;;;;;;11.25;79.50;99414.31;4964402;28;20209;-75
2022/12/29 08:10:41;;;;;;;0.30;0.30;;;;;;;11.21;80.00;99415.53;4976027;28;20209;-74
2022/12/29 08:13:07;;;;;;;0.97;0.20;;;;;;;11.19;80.92;99422.81;4966227;28;20547;-74
2022/12/29 08:15:34;;;;;;;0.43;0.37;;;;;;;11.14;81.54;99433.88;4971370;28;20226;-74
2022/12/29 08:18:00;;;;;;;0.77;0.40;;;;;;;11.11;82.33;99434.13;4978197;28;20234;-74
2022/12/29 08:20:27;;;;;;;0.20;0.20;;;;;;;11.09;82.80;99425.44;4969437;28;20206;-74
2022/12/29 08:22:55;;;;;;;0.67;0.30;;;;;;;11.08;83.29;99428.22;4968808;28;20222;-74
2022/12/29 08:25:21;;;;;;;0.20;0.20;;;;;;;11.03;83.69;99425.94;4970669;28;20232;-75
2022/12/29 08:27:48;;;;;;;0.50;0.40;;;;;;;11.01;84.09;99417.25;4978568;28;20794;-77
2022/12/29 08:30:14;;;;;;;0.70;0.50;;;;;;;10.98;84.52;99409.50;4976259;28;20221;-74
2022/12/29 08:32:41;;;;;;;0.40;0.40;;;;;;;10.96;84.77;99407.94;4972112;28;20212;-74
2022/12/29 08:35:08;;;;;;;0.50;0.40;;;;;;;10.93;84.87;99416.19;4970712;28;20252;-74
2022/12/29 08:37:35;;;;;;;1.37;0.43;;;;;;;10.94;85.14;99415.22;4965362;28;20232;-75
2022/12/29 08:40:04;;;;;;;0.30;0.30;;;;;;;10.91;84.87;99408.34;4967740;28;20226;-75
2022/12/29 08:42:30;;;;;;;0.67;0.37;;;;;;;10.91;84.95;99424.34;4966902;28;20287;-74
2022/12/29 08:44:57;;;;;;;0.30;0.30;;;;;;;10.91;84.39;99424.34;4968186;28;20238;-74
2022/12/29 08:47:24;;;;;;;0.70;0.37;;;;;;;10.91;84.25;99429.66;4977787;28;20255;-74
2022/12/29 08:49:50;;;;;;;0.77;0.43;;;;;;;10.92;84.14;99460.66;4980120;28;20215;-74
2022/12/29 08:52:17;;;;;;;1.83;0.73;;;;;;;10.90;84.26;99469.75;4976799;28;20200;-74
2022/12/29 08:54:43;;;;;;;1.17;0.43;;;;;;;10.92;84.45;99475.78;4965548;28;20225;-73
2022/12/29 08:57:11;;;;;;;2.17;0.60;;;;;;;10.89;85.22;99487.53;4973846;28;20208;-72
2022/12/29 08:59:38;;;;;;;3.07;0.70;;;;;;;10.86;85.65;99498.44;4965061;28;20212;-72
2022/12/29 09:02:04;;;;;;;2.30;0.60;;;;;;;10.82;85.97;99485.50;4969000;28;20216;-72
2022/12/29 09:04:30;;;;;;;0.90;0.60;;;;;;;10.75;86.75;99464.69;4960630;28;20231;-72
2022/12/29 09:06:57;;;;;;;2.97;1.10;;;;;;;10.72;87.22;99469.44;4963967;28;20224;-73
2022/12/29 09:09:23;;;;;;;1.63;1.00;;;;;;;10.70;88.01;99476.72;4964612;28;20205;-73
2022/12/29 09:11:50;;;;;;;2.63;0.80;;;;;;;10.63;88.82;99480.84;4955939;28;20216;-74
2022/12/29 09:14:18;;;;;;;1.40;0.67;;;;;;;10.58;89.41;99493.69;4970577;28;20746;-74
2022/12/29 09:19:28;;;;;;;0.47;0.40;;;;;;;10.53;90.66;99485.25;4974021;28;20255;-74
2022/12/29 09:21:54;;;;;;;0.70;0.50;;;;;;;10.52;91.08;99483.53;4975454;28;20219;-74
2022/12/29 09:24:21;;;;;;;0.50;0.50;;;;;;;10.50;91.57;99496.13;4971402;28;20232;-74
2022/12/29 09:26:47;;;;;;;1.27;0.47;;;;;;;10.44;91.74;99500.13;4959502;28;20463;-73
2022/12/29 09:29:14;;;;;;;0.70;0.50;;;;;;;10.43;91.92;99488.63;4959757;28;20206;-76
2022/12/29 09:31:42;;;;;;;0.87;0.60;;;;;;;10.41;92.09;99479.94;4962501;28;20209;-74
2022/12/29 09:34:08;;;;;;;0.70;0.60;;;;;;;10.40;92.19;99486.22;4965765;28;20593;-74
2022/12/29 09:36:35;;;;;;;0.80;0.70;;;;;;;10.39;92.28;99481.06;4962531;28;20588;-74
2022/12/29 09:39:01;;;;;;;1.77;0.60;;;;;;;10.40;92.50;99488.03;4966010;28;20215;-74
2022/12/29 09:41:37;;;;;;;1.93;1.10;;;;;;;10.40;92.36;99480.91;4968730;28;20206;-74
2022/12/29 09:44:08;;;;;;;1.60;1.10;;;;;;;10.39;92.65;99489.84;4973704;28;20212;-74
2022/12/29 09:46:38;;;;;;;1.43;0.93;;;;;;;10.39;92.83;99487.19;4978829;28;20224;-74
2022/12/29 09:49:17;;;;;;;1.07;0.90;;;;;;;10.39;92.86;99500.50;4973499;28;20592;-74
2022/12/29 09:51:48;;;;;;;0.70;0.70;;;;;;;10.40;93.22;99491.53;4977046;28;20523;-75
2022/12/29 09:54:25;;;;;;;2.03;0.97;;;;;;;10.40;93.24;99491.53;4969631;28;20228;-74
2022/12/29 09:56:53;;;;;;;1.50;0.80;;;;;;;10.40;93.41;99496.88;4974040;28;20211;-74
2022/12/29 09:59:24;;;;;;;1.50;1.30;;;;;;;10.40;94.16;99498.69;4973875;28;20212;-74
2022/12/29 10:01:57;;;;;;;0.57;0.53;;;;;;;10.38;94.62;99488.19;4957699;28;20198;-74
2022/12/29 10:04:26;;;;;;;1.00;0.70;;;;;;;10.40;94.45;99488.88;4962498;28;20226;-74
2022/12/29 10:07:03;;;;;;;1.20;0.80;;;;;;;10.43;94.42;99478.00;4964326;28;20284;-74
2022/12/29 10:09:39;;;;;;;1.47;0.80;;;;;;;10.47;94.21;99480.41;4961054;28;20212;-74
2022/12/29 10:12:26;;;;;;;2.00;0.80;;;;;;;10.49;94.06;99483.78;4960393;28;20704;-74
2022/12/29 10:15:03;;;;;;;0.50;0.40;;;;;;;10.54;93.75;99481.59;4958341;28;20232;-74
2022/12/29 10:17:41;;;;;;;1.77;0.50;;;;;;;10.56;92.82;99490.31;4961573;28;20228;-74
2022/12/29 10:20:26;;;;;;;1.47;0.57;;;;;;;10.60;92.33;99489.06;4959265;28;20662;-74
2022/12/29 10:23:05;;;;;;;0.70;0.40;;;;;;;10.63;91.33;99487.00;4959617;28;20236;-75
2022/12/29 10:25:37;;;;;;;2.03;0.57;;;;;;;10.66;89.83;99485.91;4960375;28;20236;-75
2022/12/29 10:28:12;;;;;;;1.70;0.60;;;;;;;10.67;89.07;99492.94;4961836;28;20213;-75
2022/12/29 10:30:40;;;;;;;1.47;0.50;;;;;;;10.73;87.97;99487.13;4960070;28;20207;-75
2022/12/29 10:33:12;;;;;;;1.67;0.60;;;;;;;10.75;87.25;99488.66;4963268;28;20231;-75
2022/12/29 10:35:42;;;;;;;1.00;0.50;;;;;;;10.79;85.92;99495.44;4988132;23;20251;-70
2022/12/29 10:38:17;;;;;;;1.57;0.60;;;;;;;10.85;85.29;99490.56;4975816;28;20271;-69
2022/12/29 10:40:49;;;;;;;1.63;0.50;;;;;;;10.88;84.21;99493.84;4966053;28;20209;-69
2022/12/29 10:43:25;;;;;;;2.30;0.50;;;;;;;10.92;82.68;99479.31;4973114;28;20307;-70
2022/12/29 10:45:53;;;;;;;1.57;0.50;;;;;;;10.95;81.78;99471.03;4967940;28;20229;-70
2022/12/29 10:48:23;;;;;;;0.80;0.57;;;;;;;10.99;81.39;99463.63;4967062;28;20681;-71
2022/12/29 10:50:54;;;;;;;1.20;0.83;;;;;;;11.05;80.22;99465.78;4962672;28;20203;-71
2022/12/29 10:53:25;;;;;;;1.10;0.70;;;;;;;11.05;80.02;99471.97;4975850;28;20665;-71
2022/12/29 10:55:53;;;;;;;1.53;0.90;;;;;;;11.07;79.75;99461.19;4985595;28;20219;-71
2022/12/29 10:58:20;;;;;;;3.10;0.97;;;;;;;11.10;79.45;99471.59;4973814;28;20212;-69
2022/12/29 11:00:51;;;;;;;1.93;0.73;;;;;;;11.13;78.39;99469.47;4972753;28;20616;-69
2022/12/29 11:03:45;;;;;;;1.60;1.00;;;;;;;11.10;78.30;99474.25;4975490;28;20627;-69
2022/12/29 11:06:18;;;;;;;2.60;0.60;;;;;;;11.11;78.22;99483.91;4971823;28;20381;-69
2022/12/29 11:08:51;;;;;;;3.43;0.97;;;;;;;11.13;77.93;99495.28;4972802;28;20207;-69
2022/12/29 11:11:25;;;;;;;1.57;0.60;;;;;;;11.11;77.70;99494.56;4970967;28;20576;-69
2022/12/29 11:13:58;;;;;;;2.60;0.97;;;;;;;11.10;76.93;99507.06;4976175;28;20233;-70
2022/12/29 11:16:30;;;;;;;2.13;0.50;;;;;;;11.06;75.97;99504.78;4973447;28;20288;-70
2022/12/29 11:18:57;;;;;;;1.13;0.60;;;;;;;11.09;75.63;99507.19;4973366;28;20267;-69
2022/12/29 11:21:34;;;;;;;2.37;0.50;;;;;;;11.09;75.10;99505.38;4981865;28;20206;-69
2022/12/29 11:24:02;;;;;;;2.40;0.60;;;;;;;11.10;74.49;99500.91;4975261;28;20202;-70
2022/12/29 11:26:29;;;;;;;2.20;0.50;;;;;;;11.09;73.38;99496.53;4976763;28;20629;-70
2022/12/29 11:29:37;;;;;;;1.00;0.60;;;;;;;11.10;73.17;99515.06;4975293;28;20211;-70
2022/12/29 11:32:13;;;;;;;4.10;1.00;;;;;;;11.13;72.30;99517.44;4909436;29;20617;-69
2022/12/29 11:34:39;;;;;;;1.47;0.47;;;;;;;11.16;71.79;99520.84;4967491;28;20213;-69
2022/12/29 11:37:12;;;;;;;4.30;0.80;;;;;;;11.15;71.51;99530.66;4971403;28;20580;-69
2022/12/29 11:39:47;;;;;;;2.00;0.60;;;;;;;11.14;71.19;99529.78;4974627;28;20206;-69
2022/12/29 11:42:17;;;;;;;5.37;2.87;;;;;;;11.12;70.62;99531.75;4974192;28;20211;-68
2022/12/29 11:44:46;;;;;;;5.97;2.57;;;;;;;11.11;70.65;99531.88;4977371;28;20221;-69
2022/12/29 11:47:26;;;;;;;4.73;2.00;;;;;;;11.14;70.76;99521.81;4973178;28;20281;-69
2022/12/29 11:49:56;;;;;;;3.67;0.80;;;;;;;11.14;70.66;99542.28;4979469;28;20205;-68
2022/12/29 11:52:26;;;;;;;3.67;0.83;;;;;;;11.13;70.82;99538.75;4978018;28;20216;-68
2022/12/29 11:54:55;;;;;;;1.53;0.60;;;;;;;11.14;70.51;99537.78;4967607;28;20748;-68
2022/12/29 11:57:24;;;;;;;2.67;0.80;;;;;;;11.12;69.75;99536.22;4980845;28;20279;-68
2022/12/29 11:59:54;;;;;;;1.47;0.70;;;;;;;11.14;69.43;99528.94;4974436;28;20224;-67
2022/12/29 12:02:46;;;;;;;3.40;1.10;;;;;;;11.12;69.81;99536.22;4979688;28;20201;-69
2022/12/29 12:05:22;;;;;;;1.50;0.80;;;;;;;11.15;69.84;99538.63;4973772;28;20225;-69
2022/12/29 12:07:56;;;;;;;3.13;1.17;;;;;;;11.13;69.73;99544.09;4971353;28;20224;-69
2022/12/29 12:10:27;;;;;;;2.57;1.10;;;;;;;11.17;69.13;99543.84;4973407;28;20225;-68
2022/12/29 12:13:00;;;;;;;3.23;0.80;;;;;;;11.12;69.30;99537.06;4976360;28;20677;-69
2022/12/29 12:15:31;;;;;;;4.23;0.80;;;;;;;11.12;68.71;99537.06;4979177;28;20223;-69
2022/12/29 12:18:03;;;;;;;3.40;0.80;;;;;;;11.10;68.83;99539.03;4976223;28;20726;-69
2022/12/29 12:20:42;;;;;;;3.00;1.10;;;;;;;11.06;68.81;99542.94;4979374;28;20230;-69
2022/12/29 12:23:20;;;;;;;5.23;1.40;;;;;;;11.08;69.08;99530.34;4979231;28;20296;-69
2022/12/29 12:25:55;;;;;;;2.47;0.97;;;;;;;11.07;68.82;99523.31;4969526;28;20252;-69